Weather observations for the past three days for
Bay St. Louis, Stennis International Airport
Metric (Imperial)
Date Time (cdt) Wind (kph) Vis. (km) Weather Sky Cond. Temperature (ºC) Relative Humidity Wind Chill (°C) Heat Index (°C) Pressure Precipitation (cm)
Air Dwpt 6 hour altimeter (cm) sea level (mb) 1 hr 3 hr 6 hr
Max. Min.
01 17:50 S 11 16.09 Fair CLR 31 24 66% 37 76.17 0.0
01 16:50 SE 15 16.09 Fair CLR 33 23 56% 38 76.17 0.0
01 15:50 S 11 16.09 Partly Cloudy SCT030 33 23 56% 38 76.23 0.0
01 14:50 SE 15 16.09 Mostly Cloudy BKN030 33 24 59% 39 76.28 0.0
01 13:50 SE 17 16.09 Partly Cloudy SCT035 33 24 59% 39 76.28 0.0
01 12:50 SE 19 16.09 Partly Cloudy SCT035 33 23 56% 38 76.3 0.0
01 11:50 E 13 16.09 Partly Cloudy SCT030 SCT037 32 24 63% 38 76.35 0.0
01 10:50 E 11 G 24 16.09 Mostly Cloudy BKN024 32 24 63% 38 76.35 0.0
01 09:50 E 11 16.09 Thunderstorm in Vicinity SCT015 SCT028 30 25 75% 36 76.35 0.0
01 08:50 Vrbl 11 16.09 Partly Cloudy SCT020 28 25 84% 33 76.35 0.0
01 07:50 Vrbl 7 12.87 Rain Fog/Mist SCT020 26 25 94% 28 76.33 0.0
01 06:50 Vrbl 9 12.87 Fair CLR 25 24 94% 26 76.28 0.0
31 19:50 SE 7 16.09 Fair CLR 28 24 79% 32 76.2 0.0
31 17:50 SE 19 16.09 Partly Cloudy SCT024 30 24 70% 35 76.2 0.0
31 16:50 SE 19 G 28 16.09 Partly Cloudy SCT022 31 24 66% 37 76.2 0.0
31 15:50 SE 19 G 28 16.09 Partly Cloudy SCT025 30 23 66% 34 76.23 0.0
31 14:50 SE 19 G 28 16.09 Thunderstorm in Vicinity BKN030 32 24 63% 38 76.25 0.0
31 13:50 SE 22 16.09 Thunderstorm in Vicinity BKN030 32 24 63% 38 76.25 0.0
31 12:50 SE 19 G 31 16.09 Mostly Cloudy BKN028 33 23 56% 38 76.3 0.0
31 11:50 SE 20 G 26 16.09 Mostly Cloudy BKN029 32 24 63% 38 76.33 0.0
31 10:50 E 13 G 26 16.09 Mostly Cloudy BKN024 32 24 63% 38 76.35 0.0
31 09:50 E 15 G 22 16.09 Mostly Cloudy BKN020 31 25 70% 38 76.33 0.0
31 08:50 E 19 16.09 Partly Cloudy SCT015 29 25 79% 35 76.33 0.0
31 07:50 NE 13 16.09 A Few Clouds FEW030 26 24 89% 28 76.25 0.0
31 06:50 E 9 16.09 Fair CLR 25 24 94% 26 76.23 0.0
30 19:50 E 7 16.09 Fair CLR 28 24 79% 32 76.17 0.0
30 18:50 SE 9 16.09 Partly Cloudy SCT024 29 24 74% 34 76.15 0.0
30 17:50 SE 13 16.09 Partly Cloudy SCT030 30 24 70% 35 76.2 0.0
30 15:50 E 19 G 30 16.09 Partly Cloudy SCT024 31 23 62% 35 76.2 0.0
30 14:50 SE 15 G 28 16.09 Partly Cloudy FEW022 SCT027 31 24 66% 37 76.28 0.0
30 13:50 E 19 16.09 A Few Clouds FEW017 FEW024 31 24 66% 37 76.28 0.0
30 12:50 E 11 11.27 Light Rain BKN040 27 25 89% 31 76.35 0.0
30 11:47 SE 26 6.44 Mostly Cloudy BKN020 28 24 79% 32 76.4 0.0
30 10:47 E 15 16.09 Mostly Cloudy BKN026 32 24 63% 38 76.35 0.0
30 09:47 NE 15 16.09 Partly Cloudy SCT040 29 24 74% 34 76.35 0.0
30 08:47 E 15 16.09 Partly Cloudy SCT030 28 24 79% 32 76.33 0.0
30 07:47 NE 15 16.09 Partly Cloudy SCT025 26 24 89% 28 76.3 0.0
30 06:47 NE 15 16.09 Partly Cloudy SCT025 25 23 89% 26 76.3 0.0
29 19:50 Calm 16.09 Fair CLR 29 23 70% 33 76.17 0.0
Date Time (cdt) Wind (kph) Vis. (km) Weather Sky Cond. Air Dwpt Max. Min. Relative Humidity Wind Chill (°C) Heat Index (°C) altimeter (cm) sea level (mb) 1 hr 3 hr 6 hr
6 hour
Temperature (ºC) Pressure Precipitation (cm)